Time;durP1;ratioP1;P1;durP2;ratioP2;P2;SDS_P1;SDS_P2;PMS_P1;PMS_P2;Temp;Humidity;BMP_temperature;BMP_pressure;BME280_temperature;BME280_humidity;BME280_pressure;Samples;Min_cycle;Max_cycle;Signal;HPM_P1;HPM_P2
2022/07/20 00:01:32;;;;;;;8.32;3.30;;;25.00;61.60;;;;;;5062678;28;20133;-69
2022/07/20 00:03:58;;;;;;;8.18;2.92;;;25.00;61.60;;;;;;5066123;28;20032;-69
2022/07/20 00:06:24;;;;;;;7.97;3.20;;;25.00;61.80;;;;;;5055792;28;20033;-69
2022/07/20 00:11:34;;;;;;;13.38;3.67;;;24.90;62.10;;;;;;5067958;28;20046;-68
2022/07/20 00:14:02;;;;;;;8.32;3.40;;;24.80;62.50;;;;;;5061463;28;20393;-68
2022/07/20 00:16:30;;;;;;;15.15;3.25;;;24.80;62.60;;;;;;5060544;28;20048;-69
2022/07/20 00:18:55;;;;;;;7.75;3.08;;;24.80;62.70;;;;;;5051539;28;20165;-68
2022/07/20 00:21:21;;;;;;;10.25;3.70;;;24.70;62.90;;;;;;5065981;28;20135;-69
2022/07/20 00:23:47;;;;;;;7.68;3.42;;;24.70;63.00;;;;;;5062188;28;20066;-68
2022/07/20 00:26:13;;;;;;;9.27;3.17;;;24.60;63.20;;;;;;5066360;28;20053;-69
2022/07/20 00:28:39;;;;;;;8.55;3.50;;;24.60;63.60;;;;;;5040996;28;20054;-67
2022/07/20 00:31:05;;;;;;;9.55;3.55;;;24.60;63.50;;;;;;5063817;28;20041;-68
2022/07/20 00:33:35;;;;;;;11.55;3.30;;;24.50;63.60;;;;;;5051433;28;20090;-68
2022/07/20 00:36:01;;;;;;;14.55;3.17;;;24.50;63.80;;;;;;5056981;28;20094;-68
2022/07/20 00:38:27;;;;;;;8.25;3.63;;;24.40;63.80;;;;;;5061193;28;20127;-69
2022/07/20 00:40:53;;;;;;;8.05;2.83;;;24.40;64.10;;;;;;5069561;28;20116;-68
2022/07/20 00:43:19;;;;;;;10.63;4.38;;;24.30;64.10;;;;;;5065831;28;20040;-69
2022/07/20 00:45:45;;;;;;;10.23;3.42;;;24.30;64.30;;;;;;5067610;28;20036;-68
2022/07/20 00:48:11;;;;;;;12.18;3.55;;;24.20;64.40;;;;;;5059980;28;20079;-68
2022/07/20 00:50:37;;;;;;;8.55;3.60;;;24.20;64.40;;;;;;5067120;28;20418;-68
2022/07/20 00:53:07;;;;;;;8.25;3.00;;;24.10;64.60;;;;;;5065405;28;20119;-69
2022/07/20 00:55:33;;;;;;;16.23;3.63;;;24.10;64.80;;;;;;5065895;28;20048;-69
2022/07/20 00:57:59;;;;;;;11.07;3.40;;;24.00;64.50;;;;;;5064413;28;20097;-68
2022/07/20 01:00:24;;;;;;;6.35;3.22;;;24.00;64.50;;;;;;5066009;28;20029;-69
2022/07/20 01:02:50;;;;;;;6.53;3.40;;;24.00;64.70;;;;;;5068517;28;20048;-69
2022/07/20 01:05:16;;;;;;;13.82;3.63;;;23.90;65.00;;;;;;5068084;28;20552;-69
2022/07/20 01:07:44;;;;;;;10.35;3.75;;;23.80;65.10;;;;;;5063349;28;20080;-70
2022/07/20 01:10:11;;;;;;;7.32;3.35;;;23.80;65.40;;;;;;5067127;28;20407;-69
2022/07/20 01:12:38;;;;;;;13.57;3.73;;;23.80;65.40;;;;;;5047852;28;20498;-69
2022/07/20 01:15:08;;;;;;;8.45;3.58;;;23.70;65.60;;;;;;5066323;28;20382;-68
2022/07/20 01:17:34;;;;;;;7.60;2.97;;;23.70;65.90;;;;;;5063054;28;20041;-69
2022/07/20 01:20:00;;;;;;;8.23;3.20;;;23.70;66.00;;;;;;5061237;28;20475;-70
2022/07/20 01:22:28;;;;;;;11.75;3.58;;;23.60;66.20;;;;;;5060404;28;21548;-69
2022/07/20 01:24:54;;;;;;;9.73;3.40;;;23.60;66.30;;;;;;5046505;28;20043;-71
2022/07/20 01:27:23;;;;;;;9.32;3.50;;;23.50;66.50;;;;;;5061755;28;20051;-69
2022/07/20 01:29:49;;;;;;;6.53;3.30;;;23.50;66.60;;;;;;5062790;28;20524;-70
2022/07/20 01:32:15;;;;;;;7.43;3.83;;;23.40;66.60;;;;;;5065537;28;20044;-68
2022/07/20 01:34:41;;;;;;;5.68;3.40;;;23.40;66.80;;;;;;5069037;28;20132;-68
2022/07/20 01:37:06;;;;;;;7.18;3.10;;;23.30;66.90;;;;;;5066596;28;20080;-68
2022/07/20 01:39:32;;;;;;;7.63;3.28;;;23.30;67.00;;;;;;5064522;28;20040;-69
2022/07/20 01:41:58;;;;;;;6.03;3.53;;;23.20;67.20;;;;;;5066549;28;20052;-67
2022/07/20 01:44:26;;;;;;;5.05;3.40;;;23.20;67.40;;;;;;5063803;28;20097;-68
2022/07/20 01:46:52;;;;;;;13.43;3.22;;;23.10;67.70;;;;;;5067502;28;20041;-69
2022/07/20 01:49:19;;;;;;;12.48;3.38;;;23.10;68.00;;;;;;5072516;28;20375;-68
2022/07/20 01:51:45;;;;;;;8.40;3.73;;;22.90;68.30;;;;;;5069429;28;20532;-69
2022/07/20 01:54:13;;;;;;;9.10;3.60;;;23.00;68.50;;;;;;5071265;28;20287;-70
2022/07/20 01:56:40;;;;;;;11.90;3.67;;;23.10;68.60;;;;;;5069614;28;20514;-69
2022/07/20 01:59:06;;;;;;;7.05;3.17;;;22.90;68.70;;;;;;5067398;28;20085;-68
2022/07/20 02:01:32;;;;;;;6.15;3.08;;;22.90;68.90;;;;;;5062433;28;20048;-69
2022/07/20 02:03:59;;;;;;;6.90;3.25;;;22.80;69.00;;;;;;5057253;28;20048;-68
2022/07/20 02:06:25;;;;;;;10.17;3.33;;;22.80;69.10;;;;;;5071041;28;20433;-67
2022/07/20 02:08:50;;;;;;;8.95;3.13;;;22.70;68.70;;;;;;5070571;28;20044;-69
2022/07/20 02:11:16;;;;;;;11.05;3.47;;;22.70;68.50;;;;;;5073734;28;20131;-68
2022/07/20 02:13:42;;;;;;;8.65;3.70;;;22.70;68.60;;;;;;5069069;28;20052;-69
2022/07/20 02:16:17;;;;;;;6.78;3.83;;;22.70;68.50;;;;;;5071526;28;20044;-68
2022/07/20 02:19:00;;;;;;;8.05;3.35;;;22.60;68.40;;;;;;5070584;28;20045;-68
2022/07/20 02:21:29;;;;;;;9.55;3.42;;;22.70;68.70;;;;;;5073975;28;20044;-69
2022/07/20 02:23:55;;;;;;;8.93;3.78;;;22.60;68.50;;;;;;5070498;28;20089;-69
2022/07/20 02:26:22;;;;;;;10.07;2.97;;;22.60;68.50;;;;;;5071233;28;20056;-69
2022/07/20 02:28:50;;;;;;;9.25;3.40;;;22.50;68.70;;;;;;5064517;28;20044;-70
2022/07/20 02:31:18;;;;;;;9.32;3.72;;;22.50;68.60;;;;;;5070115;28;20512;-69
2022/07/20 02:33:47;;;;;;;6.03;3.33;;;22.50;68.70;;;;;;5060487;28;20149;-66
2022/07/20 02:36:13;;;;;;;10.00;3.30;;;22.40;68.70;;;;;;5048777;28;20127;-70
2022/07/20 02:38:42;;;;;;;7.82;3.05;;;22.40;68.50;;;;;;5070372;28;20123;-71
2022/07/20 02:41:08;;;;;;;6.80;3.38;;;22.40;68.80;;;;;;5071212;28;20063;-69
2022/07/20 02:43:34;;;;;;;5.45;3.22;;;22.30;69.10;;;;;;5065251;28;20041;-68
2022/07/20 02:46:00;;;;;;;7.90;3.40;;;22.30;69.40;;;;;;5066482;28;20045;-67
2022/07/20 02:48:26;;;;;;;13.70;3.22;;;22.30;69.40;;;;;;5061695;28;20045;-69
2022/07/20 02:50:51;;;;;;;11.77;3.45;;;22.30;69.60;;;;;;5062149;28;20368;-68
2022/07/20 02:53:17;;;;;;;5.95;3.40;;;22.20;70.00;;;;;;5062934;28;20047;-68
2022/07/20 02:55:43;;;;;;;11.55;3.67;;;22.20;70.20;;;;;;5036925;28;20044;-70
2022/07/20 02:58:12;;;;;;;7.68;3.17;;;22.10;70.30;;;;;;5061789;28;20037;-69
2022/07/20 03:00:39;;;;;;;8.50;3.20;;;22.10;70.30;;;;;;5066766;28;20122;-68
2022/07/20 03:03:05;;;;;;;5.50;3.25;;;22.00;70.40;;;;;;5061909;28;20403;-70
2022/07/20 03:05:32;;;;;;;10.48;3.40;;;22.00;70.30;;;;;;5058459;28;20076;-68
2022/07/20 03:07:58;;;;;;;7.83;3.80;;;22.00;70.10;;;;;;5068729;28;20409;-68
2022/07/20 03:10:25;;;;;;;9.55;3.22;;;22.00;70.10;;;;;;5079965;28;20174;-69
2022/07/20 03:12:51;;;;;;;7.63;3.38;;;22.00;70.10;;;;;;5064244;28;20135;-69
2022/07/20 03:15:16;;;;;;;11.25;3.67;;;21.90;70.20;;;;;;5071961;28;20080;-69
2022/07/20 03:17:44;;;;;;;8.45;3.67;;;22.00;70.50;;;;;;5069009;28;20037;-70
2022/07/20 03:20:13;;;;;;;8.60;3.47;;;21.90;70.50;;;;;;5071083;28;20037;-68
2022/07/20 03:22:40;;;;;;;7.90;3.55;;;21.90;70.80;;;;;;5068631;28;20041;-70
2022/07/20 03:25:06;;;;;;;12.48;3.80;;;21.90;71.00;;;;;;5067169;28;20044;-69
2022/07/20 03:27:32;;;;;;;9.80;3.50;;;21.80;71.30;;;;;;5066900;28;20051;-68
2022/07/20 03:29:58;;;;;;;9.10;3.80;;;21.80;71.60;;;;;;5050964;28;20089;-67
2022/07/20 03:32:23;;;;;;;10.52;3.42;;;21.70;71.60;;;;;;5062854;28;20048;-69
2022/07/20 03:34:49;;;;;;;10.85;3.90;;;21.70;71.70;;;;;;5067318;28;20045;-69
2022/07/20 03:37:15;;;;;;;7.32;3.55;;;21.70;71.80;;;;;;5069258;28;20487;-69
2022/07/20 03:39:41;;;;;;;8.40;3.10;;;21.70;71.80;;;;;;5066918;28;20049;-68
2022/07/20 03:42:06;;;;;;;6.40;3.70;;;21.60;72.00;;;;;;5062221;28;20080;-69
2022/07/20 03:44:32;;;;;;;6.43;2.95;;;21.60;72.10;;;;;;5061610;28;20148;-69
2022/07/20 03:47:00;;;;;;;9.68;3.53;;;21.60;72.20;;;;;;5065629;28;20560;-69
2022/07/20 03:49:28;;;;;;;7.68;3.67;;;21.50;72.20;;;;;;5061009;28;20049;-70
2022/07/20 03:51:53;;;;;;;9.88;4.03;;;21.50;72.20;;;;;;5069958;28;20041;-69
2022/07/20 03:54:22;;;;;;;8.23;3.53;;;21.50;72.10;;;;;;5066288;28;20036;-68
2022/07/20 03:56:48;;;;;;;9.55;3.95;;;21.50;72.10;;;;;;5065302;28;20072;-67
2022/07/20 03:59:14;;;;;;;13.30;4.20;;;21.50;72.10;;;;;;5051472;28;20076;-69
2022/07/20 04:01:40;;;;;;;7.45;3.20;;;21.40;72.10;;;;;;5068643;28;20398;-70
2022/07/20 04:04:06;;;;;;;7.28;3.65;;;21.40;72.20;;;;;;5066717;28;20048;-67
2022/07/20 04:06:33;;;;;;;8.85;3.33;;;21.40;72.10;;;;;;5067666;28;20037;-69
2022/07/20 04:08:59;;;;;;;16.35;3.83;;;21.40;72.30;;;;;;5070322;28;20036;-70
2022/07/20 04:11:24;;;;;;;10.15;3.97;;;21.40;72.30;;;;;;5063526;28;20093;-70
2022/07/20 04:13:51;;;;;;;19.92;4.40;;;21.40;72.60;;;;;;5066625;28;20047;-68
2022/07/20 04:16:16;;;;;;;9.65;3.65;;;21.40;72.60;;;;;;5063268;28;20090;-68
2022/07/20 04:18:42;;;;;;;10.10;3.42;;;21.40;72.50;;;;;;5069394;28;20123;-70
2022/07/20 04:21:08;;;;;;;10.27;3.95;;;21.40;72.50;;;;;;5071396;28;20040;-69
2022/07/20 04:23:34;;;;;;;10.20;3.50;;;21.40;72.60;;;;;;5062629;28;20029;-68
2022/07/20 04:25:59;;;;;;;9.55;3.53;;;21.40;72.30;;;;;;5065209;28;20155;-69
2022/07/20 04:28:25;;;;;;;12.48;3.80;;;21.40;72.20;;;;;;5071062;28;20482;-69
2022/07/20 04:30:54;;;;;;;7.70;3.50;;;21.50;72.00;;;;;;5068428;28;20069;-69
2022/07/20 04:33:20;;;;;;;8.00;3.50;;;21.50;72.00;;;;;;5050344;28;20383;-68
2022/07/20 04:35:46;;;;;;;11.05;3.85;;;21.50;71.90;;;;;;5071273;28;20044;-69
2022/07/20 04:38:17;;;;;;;11.75;3.70;;;21.50;72.20;;;;;;5067497;28;20387;-67
2022/07/20 04:40:44;;;;;;;9.13;3.75;;;21.50;72.30;;;;;;5061123;28;20037;-68
2022/07/20 04:43:13;;;;;;;8.35;4.13;;;21.50;72.10;;;;;;5070830;28;20097;-69
2022/07/20 04:45:38;;;;;;;12.05;3.92;;;21.50;72.00;;;;;;5063751;28;20496;-68
2022/07/20 04:48:04;;;;;;;7.93;3.95;;;21.60;71.90;;;;;;5068075;28;20142;-69
2022/07/20 04:50:30;;;;;;;14.57;4.30;;;21.60;72.00;;;;;;5046621;28;20045;-69
2022/07/20 04:52:56;;;;;;;7.35;3.97;;;21.60;72.10;;;;;;5068372;28;20070;-69
2022/07/20 04:55:23;;;;;;;11.73;4.22;;;21.70;72.40;;;;;;5068461;28;20040;-69
2022/07/20 04:57:49;;;;;;;18.13;4.22;;;21.70;72.30;;;;;;5063205;28;20045;-69
2022/07/20 05:00:15;;;;;;;8.57;3.83;;;21.70;72.30;;;;;;5050659;28;20124;-69
2022/07/20 05:02:40;;;;;;;14.38;3.83;;;21.70;72.30;;;;;;5066302;28;20499;-69
2022/07/20 05:05:06;;;;;;;9.68;4.18;;;21.70;72.40;;;;;;5066591;28;20032;-67
2022/07/20 05:07:33;;;;;;;9.02;3.85;;;21.80;72.20;;;;;;5067577;28;20047;-69
2022/07/20 05:09:59;;;;;;;15.77;4.13;;;21.90;72.00;;;;;;5063045;28;20398;-69
2022/07/20 05:12:24;;;;;;;10.27;3.72;;;21.90;71.80;;;;;;5062731;28;20487;-68
2022/07/20 05:14:50;;;;;;;9.43;4.03;;;22.00;72.20;;;;;;5066963;28;20181;-69
2022/07/20 05:17:16;;;;;;;8.32;4.28;;;22.00;71.80;;;;;;5069472;28;20430;-68
2022/07/20 05:19:41;;;;;;;14.18;4.30;;;22.10;71.70;;;;;;5062667;28;20045;-69
2022/07/20 05:22:15;;;;;;;13.60;3.83;;;22.10;71.80;;;;;;5059916;28;20502;-69
2022/07/20 05:24:45;;;;;;;14.68;4.00;;;22.20;71.80;;;;;;5060164;28;20079;-67
2022/07/20 05:27:10;;;;;;;7.28;3.55;;;22.30;71.70;;;;;;5063168;28;20131;-69
2022/07/20 05:29:43;;;;;;;14.82;4.10;;;22.40;71.70;;;;;;5064171;28;20460;-74
2022/07/20 05:32:09;;;;;;;7.22;4.05;;;22.40;72.10;;;;;;5043606;28;20123;-68
2022/07/20 05:34:35;;;;;;;12.85;4.05;;;22.40;71.80;;;;;;5062709;28;20546;-67
2022/07/20 05:37:00;;;;;;;12.70;3.72;;;22.50;71.80;;;;;;5062248;28;20037;-68
2022/07/20 05:39:26;;;;;;;14.05;3.35;;;22.50;72.00;;;;;;5064541;28;20065;-69
2022/07/20 05:41:54;;;;;;;17.33;4.38;;;22.60;71.90;;;;;;5060821;28;20053;-68
2022/07/20 05:44:20;;;;;;;8.70;3.60;;;22.70;71.40;;;;;;5067739;28;20499;-70
2022/07/20 05:46:45;;;;;;;12.50;3.60;;;22.80;71.40;;;;;;5064663;28;20082;-68
2022/07/20 05:49:11;;;;;;;9.20;3.17;;;22.90;71.20;;;;;;5058183;28;20101;-70
2022/07/20 05:51:37;;;;;;;7.55;3.78;;;22.90;71.00;;;;;;5051771;28;20402;-69
2022/07/20 05:54:03;;;;;;;10.50;3.97;;;23.00;71.20;;;;;;5056342;28;20491;-69
2022/07/20 05:56:29;;;;;;;10.85;4.05;;;23.10;71.50;;;;;;5065462;28;20106;-69
2022/07/20 05:58:55;;;;;;;11.07;3.80;;;23.20;72.00;;;;;;5069135;28;20037;-69
2022/07/20 06:01:20;;;;;;;13.02;4.15;;;23.30;71.80;;;;;;5050964;28;20059;-69
2022/07/20 06:03:46;;;;;;;9.32;3.53;;;23.40;70.60;;;;;;5062292;28;20041;-70
2022/07/20 06:06:12;;;;;;;6.00;3.30;;;23.50;70.10;;;;;;5044841;28;20044;-70
2022/07/20 06:08:37;;;;;;;9.07;3.83;;;23.50;70.00;;;;;;5069426;28;20095;-70
2022/07/20 06:11:03;;;;;;;7.68;4.07;;;23.70;70.00;;;;;;5060736;28;20036;-69
2022/07/20 06:13:29;;;;;;;8.00;3.60;;;23.90;69.50;;;;;;5050001;28;20095;-69
2022/07/20 06:15:58;;;;;;;10.98;3.50;;;24.00;69.40;;;;;;5050475;28;20082;-69
2022/07/20 06:18:26;;;;;;;8.60;3.65;;;24.10;69.50;;;;;;5058473;28;20041;-68
2022/07/20 06:20:53;;;;;;;8.48;3.72;;;24.20;69.70;;;;;;5066330;28;20375;-70
2022/07/20 06:23:19;;;;;;;8.55;4.05;;;24.40;68.40;;;;;;5042828;28;20037;-68
2022/07/20 06:25:45;;;;;;;6.88;3.60;;;24.50;68.20;;;;;;5064424;28;20454;-68
2022/07/20 06:28:11;;;;;;;9.85;3.97;;;24.70;67.90;;;;;;5065462;28;20400;-68
2022/07/20 06:30:36;;;;;;;9.60;3.60;;;24.80;67.90;;;;;;5050338;28;20051;-69
2022/07/20 06:33:02;;;;;;;9.65;3.65;;;25.00;67.70;;;;;;5063367;28;20044;-68
2022/07/20 06:35:28;;;;;;;8.65;3.70;;;25.10;67.30;;;;;;5068777;28;20094;-68
2022/07/20 06:37:53;;;;;;;8.57;3.70;;;25.30;67.30;;;;;;5065328;28;20398;-68
2022/07/20 06:40:19;;;;;;;8.82;3.80;;;25.40;65.60;;;;;;5059662;28;20041;-68
2022/07/20 06:42:45;;;;;;;6.50;3.40;;;25.60;65.10;;;;;;5070174;28;20487;-71
2022/07/20 06:45:11;;;;;;;12.23;3.70;;;25.70;65.40;;;;;;5059485;28;20045;-68
2022/07/20 06:47:37;;;;;;;10.63;3.75;;;25.80;66.10;;;;;;5061571;28;20040;-69
2022/07/20 06:50:06;;;;;;;10.93;4.93;;;26.00;65.70;;;;;;5054586;28;20044;-69
2022/07/20 06:52:32;;;;;;;8.77;3.78;;;26.10;65.00;;;;;;5061334;28;20588;-67
2022/07/20 06:54:58;;;;;;;6.50;3.65;;;26.30;65.20;;;;;;5072350;28;20053;-71
2022/07/20 06:57:24;;;;;;;10.07;3.90;;;26.40;65.60;;;;;;5061944;28;20044;-70
2022/07/20 06:59:49;;;;;;;8.32;3.33;;;26.50;65.10;;;;;;5071646;28;20043;-68
2022/07/20 07:02:15;;;;;;;6.45;3.60;;;26.60;64.40;;;;;;5071020;28;20064;-68
2022/07/20 07:04:41;;;;;;;8.70;4.20;;;26.70;64.40;;;;;;5071801;28;20410;-67
2022/07/20 07:07:07;;;;;;;14.27;3.97;;;26.70;63.80;;;;;;5072238;28;20127;-69
2022/07/20 07:09:34;;;;;;;12.35;3.90;;;26.90;63.90;;;;;;5068662;28;20121;-68
2022/07/20 07:12:00;;;;;;;9.20;3.70;;;27.00;64.00;;;;;;5057325;28;20036;-68
2022/07/20 07:14:27;;;;;;;7.20;3.75;;;27.10;63.50;;;;;;5064308;28;20506;-68
2022/07/20 07:16:53;;;;;;;9.52;4.43;;;27.20;63.60;;;;;;5067975;28;20513;-68
2022/07/20 07:19:19;;;;;;;10.80;4.30;;;27.30;63.90;;;;;;5063004;28;20487;-68
2022/07/20 07:21:45;;;;;;;12.75;4.15;;;27.40;63.70;;;;;;5071285;28;20098;-72
2022/07/20 07:24:10;;;;;;;12.25;4.20;;;27.50;63.10;;;;;;5060539;28;20051;-68
2022/07/20 07:26:36;;;;;;;8.30;4.25;;;27.60;63.00;;;;;;5070493;28;20493;-68
2022/07/20 07:29:02;;;;;;;18.75;4.30;;;27.70;62.30;;;;;;5068436;28;20040;-67
2022/07/20 07:31:28;;;;;;;8.70;4.63;;;27.70;62.50;;;;;;5067414;28;20048;-68
2022/07/20 07:33:53;;;;;;;9.95;4.47;;;27.80;62.60;;;;;;5068470;28;20044;-68
2022/07/20 07:36:19;;;;;;;10.55;4.30;;;27.90;62.70;;;;;;5073626;28;20094;-69
2022/07/20 07:38:45;;;;;;;8.60;4.35;;;28.00;62.90;;;;;;5072911;28;20045;-68
2022/07/20 07:41:11;;;;;;;10.10;4.10;;;28.10;62.90;;;;;;5034642;28;20043;-68
2022/07/20 07:43:40;;;;;;;8.57;4.50;;;28.20;62.70;;;;;;5070912;28;20051;-68
2022/07/20 07:46:05;;;;;;;8.63;5.10;;;28.20;62.80;;;;;;5069856;28;20036;-69
2022/07/20 07:48:34;;;;;;;22.20;5.28;;;28.30;62.40;;;;;;5070628;28;20375;-68
2022/07/20 07:51:00;;;;;;;8.30;5.03;;;28.30;62.40;;;;;;5071926;28;20043;-68
2022/07/20 07:53:27;;;;;;;10.68;5.38;;;28.40;62.80;;;;;;5067680;28;20119;-67
2022/07/20 07:55:52;;;;;;;11.90;5.43;;;28.50;63.10;;;;;;5070020;28;20059;-67
2022/07/20 07:58:18;;;;;;;15.38;5.47;;;28.60;63.30;;;;;;5059533;28;20041;-68
2022/07/20 08:00:44;;;;;;;12.48;5.20;;;28.80;63.50;;;;;;5069092;28;20071;-67
2022/07/20 08:03:12;;;;;;;11.13;5.05;;;28.80;63.20;;;;;;5072235;28;20383;-69
2022/07/20 08:05:38;;;;;;;11.07;5.63;;;29.00;63.70;;;;;;5069326;28;20553;-66
2022/07/20 08:08:13;;;;;;;12.73;5.25;;;29.00;63.90;;;;;;5069516;28;20143;-67
2022/07/20 08:10:40;;;;;;;16.60;6.60;;;29.10;64.50;;;;;;5068805;28;20044;-69
2022/07/20 08:13:06;;;;;;;;;;;29.20;64.10;;;;;;5046367;28;20138;-69
2022/07/20 08:15:32;;;;;;;13.32;6.57;;;29.30;64.50;;;;;;5069040;28;19920;-68
2022/07/20 08:17:58;;;;;;;15.13;7.30;;;29.40;64.50;;;;;;5071215;28;20056;-67
2022/07/20 08:20:24;;;;;;;12.13;6.70;;;29.50;64.80;;;;;;5066671;28;20048;-67
2022/07/20 08:22:51;;;;;;;15.23;6.68;;;29.50;65.10;;;;;;5066899;28;20040;-68
2022/07/20 08:25:18;;;;;;;14.18;7.30;;;29.70;65.50;;;;;;5068760;28;20040;-67
2022/07/20 08:27:43;;;;;;;17.65;8.60;;;29.70;65.90;;;;;;5052843;28;20237;-67
2022/07/20 08:30:10;;;;;;;17.05;7.90;;;29.80;66.10;;;;;;5047843;28;20241;-67
2022/07/20 08:32:35;;;;;;;19.10;8.40;;;29.90;66.60;;;;;;5068657;28;20048;-68
2022/07/20 08:35:01;;;;;;;22.10;9.07;;;29.90;66.70;;;;;;5049593;28;20047;-67
2022/07/20 08:37:29;;;;;;;16.65;8.32;;;30.00;66.90;;;;;;5067231;28;20044;-68
2022/07/20 08:39:55;;;;;;;14.38;7.95;;;30.10;67.00;;;;;;5065742;28;20052;-68
2022/07/20 08:42:22;;;;;;;18.60;8.60;;;30.10;66.90;;;;;;5070957;28;20101;-68
2022/07/20 08:44:48;;;;;;;15.35;8.75;;;30.20;67.40;;;;;;5050388;28;20051;-67
2022/07/20 08:47:14;;;;;;;17.00;9.50;;;30.30;67.70;;;;;;5069559;28;20044;-67
2022/07/20 08:49:45;;;;;;;23.73;10.33;;;30.30;68.20;;;;;;5067654;28;20395;-68
2022/07/20 08:52:11;;;;;;;22.50;11.98;;;30.30;68.70;;;;;;5061314;28;20064;-67
2022/07/20 08:54:37;;;;;;;24.15;11.88;;;30.30;68.80;;;;;;5066582;28;20457;-66
2022/07/20 08:57:11;;;;;;;24.73;12.75;;;30.40;69.10;;;;;;5063018;28;20036;-69
2022/07/20 08:59:36;;;;;;;24.15;11.70;;;30.50;69.60;;;;;;5048006;28;20063;-68
2022/07/20 09:02:05;;;;;;;21.38;12.05;;;30.40;69.90;;;;;;5067801;28;20198;-68
2022/07/20 09:04:31;;;;;;;22.40;12.95;;;30.40;70.30;;;;;;5068348;28;20071;-69
2022/07/20 09:06:59;;;;;;;40.35;14.02;;;30.50;70.40;;;;;;5066577;28;20048;-67
2022/07/20 09:09:26;;;;;;;27.38;14.40;;;30.60;70.60;;;;;;5066986;28;20101;-68
2022/07/20 09:11:52;;;;;;;26.90;14.27;;;30.60;70.60;;;;;;5070295;28;20084;-69
2022/07/20 09:14:40;;;;;;;23.65;14.15;;;30.70;70.60;;;;;;5067828;28;20470;-69
2022/07/20 09:17:23;;;;;;;24.67;14.50;;;30.70;71.30;;;;;;5068542;28;20093;-67
2022/07/20 09:19:56;;;;;;;23.90;14.15;;;30.80;71.40;;;;;;5071242;28;20091;-68
2022/07/20 09:22:30;;;;;;;24.55;14.13;;;30.90;71.40;;;;;;5071059;28;20078;-68
2022/07/20 09:25:14;;;;;;;33.25;15.55;;;31.00;72.20;;;;;;5060994;28;20494;-70
2022/07/20 09:27:41;;;;;;;29.50;16.40;;;31.10;70.70;;;;;;5070003;28;20052;-68
2022/07/20 09:30:13;;;;;;;24.63;16.75;;;30.90;70.80;;;;;;5068200;28;20459;-70
2022/07/20 09:33:01;;;;;;;28.90;17.00;;;31.00;71.20;;;;;;5070015;28;20046;-68
2022/07/20 09:35:30;;;;;;;30.58;17.10;;;30.90;70.80;;;;;;5052686;28;20413;-68
2022/07/20 09:38:00;;;;;;;32.95;17.25;;;30.80;71.60;;;;;;5068262;28;20486;-68
2022/07/20 09:40:26;;;;;;;30.15;17.25;;;30.80;72.20;;;;;;5069425;28;20529;-68
2022/07/20 09:42:52;;;;;;;33.63;17.52;;;30.80;72.20;;;;;;5070107;28;20123;-69
2022/07/20 09:45:18;;;;;;;31.23;16.92;;;30.90;71.50;;;;;;5070392;28;20128;-69
2022/07/20 09:48:05;;;;;;;27.15;17.65;;;30.80;72.00;;;;;;5067704;28;20051;-69
2022/07/20 09:50:34;;;;;;;38.88;17.98;;;30.80;72.20;;;;;;5068488;28;20052;-67
2022/07/20 09:53:00;;;;;;;30.02;16.45;;;30.90;72.00;;;;;;5067084;28;20041;-68
2022/07/20 09:55:27;;;;;;;25.95;17.10;;;31.10;72.00;;;;;;5069597;28;20048;-68
2022/07/20 09:57:53;;;;;;;29.02;18.23;;;31.20;72.20;;;;;;5065695;28;20048;-69
2022/07/20 10:00:22;;;;;;;32.42;17.80;;;31.20;72.20;;;;;;5066659;28;20174;-67
2022/07/20 10:02:49;;;;;;;23.75;16.73;;;31.40;72.20;;;;;;5069372;28;20037;-69
2022/07/20 10:05:19;;;;;;;31.10;17.35;;;31.50;71.60;;;;;;5073891;28;20037;-69
2022/07/20 10:07:46;;;;;;;40.75;17.42;;;31.60;70.30;;;;;;5073194;28;20057;-70
2022/07/20 10:10:12;;;;;;;26.52;15.60;;;31.70;68.70;;;;;;5071051;28;20345;-67
2022/07/20 10:12:38;;;;;;;;;;;31.70;67.70;;;;;;5075448;28;20040;-68
2022/07/20 10:15:30;;;;;;;25.52;15.35;;;31.60;67.10;;;;;;5064512;28;19931;-66
2022/07/20 10:17:59;;;;;;;26.85;15.98;;;31.60;67.30;;;;;;5069954;28;20033;-69
2022/07/20 10:20:36;;;;;;;25.58;15.15;;;31.50;66.60;;;;;;5070122;28;20491;-68
2022/07/20 10:23:23;;;;;;;22.15;13.52;;;31.40;65.70;;;;;;5069936;28;20049;-69
2022/07/20 10:25:49;;;;;;;21.63;15.07;;;31.40;62.30;;;;;;5070698;28;20051;-68
2022/07/20 10:28:32;;;;;;;23.63;14.02;;;31.20;62.90;;;;;;5071061;28;20540;-67
2022/07/20 10:31:08;;;;;;;24.73;13.88;;;31.20;64.50;;;;;;5068627;28;20033;-68
2022/07/20 10:33:36;;;;;;;24.20;13.75;;;31.30;63.20;;;;;;5068134;28;20033;-70
2022/07/20 10:39:38;;;;;;;19.17;12.85;;;31.10;64.10;;;;;;5065939;28;20748;-67
2022/07/20 10:42:20;;;;;;;22.60;13.50;;;31.20;64.70;;;;;;5055974;28;20139;-68
2022/07/20 10:44:48;;;;;;;29.40;13.52;;;31.30;65.10;;;;;;5055685;28;20041;-68
2022/07/20 10:47:32;;;;;;;;;;;31.50;65.30;;;;;;5065333;28;20082;-68
2022/07/20 10:50:00;;;;;;;19.70;11.68;;;31.60;64.50;;;;;;5056351;28;19935;-67
2022/07/20 10:52:32;;;;;;;18.50;10.70;;;31.70;63.20;;;;;;5051475;28;20056;-69
2022/07/20 10:54:58;;;;;;;18.90;11.05;;;31.70;63.30;;;;;;5063842;28;20437;-68
2022/07/20 10:57:25;;;;;;;15.53;10.53;;;31.70;63.10;;;;;;5060740;28;20033;-67
2022/07/20 11:00:01;;;;;;;;;;;32.00;64.10;;;;;;5058107;28;20489;-68
2022/07/20 11:02:26;;;;;;;18.27;10.32;;;32.10;63.60;;;;;;5059412;28;19951;-68
2022/07/20 11:04:52;;;;;;;15.97;9.47;;;32.10;62.80;;;;;;5068712;28;20087;-68
2022/07/20 11:07:34;;;;;;;19.20;9.53;;;32.20;62.50;;;;;;5063601;28;20120;-67
2022/07/20 11:10:17;;;;;;;16.15;9.23;;;32.30;61.80;;;;;;5061321;28;20395;-67
2022/07/20 11:12:43;;;;;;;18.48;9.43;;;32.50;61.30;;;;;;5068854;28;20097;-67
2022/07/20 11:15:12;;;;;;;13.88;9.43;;;32.60;60.90;;;;;;5069216;28;20048;-69
2022/07/20 11:17:39;;;;;;;17.30;9.67;;;32.70;60.60;;;;;;5057985;28;20533;-69
2022/07/20 11:20:05;;;;;;;16.55;9.30;;;32.70;60.60;;;;;;5064953;28;20124;-68
2022/07/20 11:22:31;;;;;;;17.45;9.10;;;32.80;61.10;;;;;;5062958;28;20033;-68
2022/07/20 11:24:57;;;;;;;13.90;8.82;;;33.00;60.60;;;;;;5059729;28;20197;-67
2022/07/20 11:27:23;;;;;;;17.33;9.13;;;33.10;60.20;;;;;;5067748;28;20447;-67
2022/07/20 11:29:51;;;;;;;14.87;8.57;;;33.30;60.40;;;;;;5064859;28;20049;-67
2022/07/20 11:32:19;;;;;;;22.50;9.07;;;33.20;59.90;;;;;;5073497;28;20513;-67
2022/07/20 11:34:49;;;;;;;16.88;9.07;;;33.30;59.80;;;;;;5074069;28;20105;-69
2022/07/20 11:37:18;;;;;;;14.75;8.65;;;33.20;59.50;;;;;;5062610;28;20040;-68
2022/07/20 11:39:44;;;;;;;23.73;8.85;;;33.30;59.60;;;;;;5074436;28;20052;-68
2022/07/20 11:42:17;;;;;;;12.27;8.90;;;33.30;58.80;;;;;;5068750;28;20044;-69
2022/07/20 11:44:59;;;;;;;14.25;8.82;;;33.40;59.30;;;;;;5058476;28;20039;-69
2022/07/20 11:47:25;;;;;;;12.40;9.20;;;33.40;58.10;;;;;;5065929;28;20056;-68
2022/07/20 11:50:09;;;;;;;14.98;9.27;;;33.20;59.10;;;;;;5054325;28;20437;-68
2022/07/20 11:52:42;;;;;;;16.42;9.45;;;33.10;58.70;;;;;;5043425;28;20124;-68
2022/07/20 11:55:11;;;;;;;20.40;9.43;;;33.00;59.10;;;;;;5072728;28;20093;-69
2022/07/20 11:57:40;;;;;;;15.20;8.60;;;32.80;59.10;;;;;;5063189;28;20045;-69
2022/07/20 12:00:07;;;;;;;16.00;8.60;;;32.90;58.80;;;;;;5070815;28;20089;-69
2022/07/20 12:02:33;;;;;;;14.63;9.45;;;32.90;59.60;;;;;;5073189;28;20097;-67
2022/07/20 12:04:59;;;;;;;16.45;8.32;;;33.00;60.10;;;;;;5054185;28;20146;-68
2022/07/20 12:10:20;;;;;;;15.75;7.20;;;33.10;58.70;;;;;;5053831;28;20181;-69
2022/07/20 12:13:01;;;;;;;16.63;7.60;;;33.10;57.60;;;;;;5053758;28;20052;-67
2022/07/20 12:15:29;;;;;;;12.88;8.13;;;33.00;58.70;;;;;;5070784;28;20067;-66
2022/07/20 12:17:55;;;;;;;21.00;7.45;;;32.90;58.80;;;;;;5059818;28;20113;-67
2022/07/20 12:20:23;;;;;;;12.60;7.03;;;33.10;59.30;;;;;;5065020;28;20462;-68
2022/07/20 12:23:06;;;;;;;15.63;6.50;;;33.10;58.90;;;;;;5072674;28;20044;-67
2022/07/20 12:25:43;;;;;;;14.07;6.45;;;33.30;57.20;;;;;;5069535;28;20316;-68
2022/07/20 12:28:09;;;;;;;12.43;6.05;;;33.40;56.70;;;;;;5062194;28;20482;-67
2022/07/20 12:30:38;;;;;;;9.80;5.72;;;33.30;56.00;;;;;;5064166;28;20053;-69
2022/07/20 12:33:11;;;;;;;11.55;5.47;;;33.20;56.40;;;;;;5064669;28;20441;-69
2022/07/20 12:36:00;;;;;;;10.63;6.22;;;33.30;56.60;;;;;;5068092;28;20048;-69
2022/07/20 12:38:32;;;;;;;10.55;6.38;;;33.40;55.50;;;;;;5067841;28;20049;-68
2022/07/20 12:40:58;;;;;;;18.10;7.20;;;33.30;55.00;;;;;;5072919;28;20040;-69
2022/07/20 12:43:41;;;;;;;13.73;7.50;;;33.20;55.60;;;;;;5063753;28;20387;-67
2022/07/20 12:46:10;;;;;;;11.93;7.50;;;33.20;56.40;;;;;;5052651;28;20045;-68
2022/07/20 12:48:41;;;;;;;13.88;7.15;;;33.10;56.70;;;;;;5067843;28;20491;-68
2022/07/20 12:51:10;;;;;;;14.93;7.30;;;33.10;57.20;;;;;;5042705;28;20092;-68
2022/07/20 12:53:37;;;;;;;16.10;7.32;;;32.90;57.50;;;;;;5063891;28;20052;-67